Time;durP1;ratioP1;P1;durP2;ratioP2;P2;SDS_P1;SDS_P2;PMS_P1;PMS_P2;Temp;Humidity;BMP_temperature;BMP_pressure;BME280_temperature;BME280_humidity;BME280_pressure;Samples;Min_cycle;Max_cycle;Signal;HPM_P1;HPM_P2
2022/01/06 00:00:30;;;;;;;;;22.40;22.00;;;;;8.59;54.36;101378.59;2068194;27;47876;-61
2022/01/06 00:01:30;;;;;;;;;19.20;18.80;;;;;8.59;54.42;101377.69;2069413;27;46398;-60
2022/01/06 00:02:31;;;;;;;;;25.25;22.00;;;;;8.59;54.52;101377.69;2058765;28;47390;-61
2022/01/06 00:03:31;;;;;;;;;26.25;23.25;;;;;8.57;54.60;101374.19;2062529;28;47271;-62
2022/01/06 00:04:32;;;;;;;;;20.50;20.50;;;;;8.57;54.65;101371.53;2061054;28;47044;-61
2022/01/06 00:05:32;;;;;;;;;23.50;23.25;;;;;8.58;54.67;101368.00;2060124;28;47680;-61
2022/01/06 00:06:38;;;;;;;;;22.25;21.25;;;;;8.57;54.52;101367.13;2054525;28;47228;-61
2022/01/06 00:07:38;;;;;;;;;20.80;20.80;;;;;8.56;54.65;101375.97;2058564;28;47539;-61
2022/01/06 00:08:40;;;;;;;;;23.75;23.50;;;;;8.56;54.66;101370.66;2060778;28;47158;-62
2022/01/06 00:09:40;;;;;;;;;20.60;19.80;;;;;8.55;54.61;101368.91;2059002;28;47197;-61
2022/01/06 00:10:41;;;;;;;;;22.00;22.00;;;;;8.55;54.56;101367.13;2056836;28;47866;-62
2022/01/06 00:11:42;;;;;;;;;20.75;16.75;;;;;8.55;54.74;101366.25;2057019;28;47290;-61
2022/01/06 00:13:00;;;;;;;;;23.20;21.80;;;;;8.53;54.66;101357.47;2060170;28;47931;-62
2022/01/06 00:14:11;;;;;;;;;21.20;20.20;;;;;8.53;54.64;101363.63;2055934;28;47187;-62
2022/01/06 00:15:29;;;;;;;;;20.20;20.20;;;;;8.52;54.76;101367.16;2056590;28;45317;-62
2022/01/06 00:23:06;;;;;;;;;22.20;21.80;;;;;8.51;54.69;101375.06;2055393;28;47261;-62
2022/01/06 00:24:05;;;;;;;;;27.00;22.20;;;;;8.45;54.67;101368.03;2060331;28;47491;-63
2022/01/06 00:25:06;;;;;;;;;21.00;21.00;;;;;8.45;54.71;101375.97;2060783;28;47684;-62
2022/01/06 00:26:07;;;;;;;;;19.80;19.80;;;;;8.44;54.87;101374.22;2057684;28;45981;-62
2022/01/06 00:27:08;;;;;;;;;23.40;18.00;;;;;8.42;54.93;101370.69;2061141;28;47765;-62
2022/01/06 00:28:08;;;;;;;;;23.00;21.50;;;;;8.42;54.93;101376.00;2059456;28;47667;-62
2022/01/06 00:29:09;;;;;;;;;21.50;18.50;;;;;8.42;55.04;101377.75;2061050;28;47077;-62
2022/01/06 00:30:10;;;;;;;;;19.25;19.25;;;;;8.41;55.05;101376.00;2061452;28;47208;-62
2022/01/06 00:31:10;;;;;;;;;22.40;21.20;;;;;8.40;54.99;101382.19;2061155;28;47147;-61
2022/01/06 00:32:11;;;;;;;;;20.25;18.25;;;;;8.40;55.07;101384.81;2059310;28;47113;-62
2022/01/06 00:33:12;;;;;;;;;21.25;19.50;;;;;8.39;55.09;101386.59;2050782;28;47403;-62
2022/01/06 00:34:13;;;;;;;;;23.80;22.20;;;;;8.40;55.06;101384.81;2053306;28;47483;-62
2022/01/06 00:35:13;;;;;;;;;25.25;21.00;;;;;8.39;55.02;101391.00;2058441;28;46182;-62
2022/01/06 00:36:14;;;;;;;;;19.25;19.25;;;;;8.39;55.06;101383.06;2058066;28;47272;-62
2022/01/06 00:37:14;;;;;;;;;26.50;22.00;;;;;8.39;55.11;101383.06;2057556;28;47701;-62
2022/01/06 00:38:15;;;;;;;;;20.25;19.25;;;;;8.39;55.11;101388.34;2060122;28;47184;-62
2022/01/06 00:39:15;;;;;;;;;20.50;20.00;;;;;8.38;55.12;101389.22;2054112;28;47350;-62
2022/01/06 00:40:16;;;;;;;;;30.25;25.25;;;;;8.38;55.02;101389.22;2059727;28;47633;-61
2022/01/06 00:41:16;;;;;;;;;21.50;19.75;;;;;8.37;54.78;101390.09;2056463;28;47203;-62
2022/01/06 00:42:17;;;;;;;;;23.25;21.50;;;;;8.37;55.14;101390.09;2058367;28;47493;-61
2022/01/06 00:43:18;;;;;;;;;24.50;21.25;;;;;8.36;55.15;101388.34;2060911;28;45547;-61
2022/01/06 00:44:18;;;;;;;;;22.25;20.75;;;;;8.35;55.15;101395.38;2058403;28;44937;-62
2022/01/06 00:45:18;;;;;;;;;22.25;22.25;;;;;8.36;55.14;101396.28;2060381;28;48567;-63
2022/01/06 00:46:19;;;;;;;;;20.00;20.00;;;;;8.36;55.07;101393.63;2069688;28;47518;-61
2022/01/06 00:47:20;;;;;;;;;22.00;21.00;;;;;8.36;54.91;101396.28;2080560;28;47069;-62
2022/01/06 00:48:21;;;;;;;;;21.80;21.80;;;;;8.34;55.10;101396.28;2060103;28;45441;-61
2022/01/06 00:49:21;;;;;;;;;22.50;21.25;;;;;8.35;55.00;101394.50;2059817;28;45396;-61
2022/01/06 00:50:22;;;;;;;;;21.00;20.75;;;;;8.34;55.15;101395.34;2059321;28;45096;-62
2022/01/06 00:51:23;;;;;;;;;23.20;22.20;;;;;8.34;55.22;101390.06;2059114;28;47991;-61
2022/01/06 00:52:23;;;;;;;;;23.75;23.75;;;;;8.32;55.14;101384.78;2052671;28;47526;-62
2022/01/06 00:53:24;;;;;;;;;29.00;26.00;;;;;8.31;55.21;101390.97;2053130;28;47987;-63
2022/01/06 00:54:24;;;;;;;;;20.75;20.75;;;;;8.31;55.21;101385.69;2051555;28;46592;-62
2022/01/06 00:55:25;;;;;;;;;26.50;24.50;;;;;8.31;55.19;101385.69;2055372;28;47686;-62
2022/01/06 00:56:25;;;;;;;;;26.25;22.00;;;;;8.30;55.13;101383.91;2060277;28;47597;-62
2022/01/06 00:57:26;;;;;;;;;22.50;22.50;;;;;8.31;55.11;101393.59;2058432;28;47441;-62
2022/01/06 00:58:26;;;;;;;;;21.00;20.25;;;;;8.31;55.30;101390.09;2060776;28;47260;-62
2022/01/06 00:59:27;;;;;;;;;22.25;21.75;;;;;8.31;55.10;101393.59;2059937;28;47664;-62
2022/01/06 01:00:37;;;;;;;;;19.00;15.25;;;;;8.32;55.27;101395.38;2060213;28;47528;-62
2022/01/06 01:01:38;;;;;;;;;27.00;22.40;;;;;8.31;55.09;101396.25;2054681;27;47623;-62
2022/01/06 01:02:38;;;;;;;;;21.25;21.25;;;;;8.30;55.08;101389.22;2059998;28;47161;-62
2022/01/06 01:03:38;;;;;;;;;25.50;21.25;;;;;8.30;55.51;101398.91;2059118;28;46572;-62
2022/01/06 01:04:39;;;;;;;;;22.50;21.00;;;;;8.29;55.18;101394.50;2053632;28;46846;-62
2022/01/06 01:05:42;;;;;;;;;23.50;20.50;;;;;8.29;55.22;101399.78;2062096;28;47557;-60
2022/01/06 01:06:42;;;;;;;;;25.20;22.60;;;;;8.28;55.28;101398.91;2061448;28;47352;-62
2022/01/06 01:07:42;;;;;;;;;22.00;21.25;;;;;8.27;55.26;101399.78;2060808;28;47142;-62
2022/01/06 01:08:43;;;;;;;;;22.00;18.75;;;;;8.26;55.23;101398.91;2061775;28;47697;-62
2022/01/06 01:09:43;;;;;;;;;19.50;19.00;;;;;8.26;55.22;101400.69;2061753;28;47614;-62
2022/01/06 01:10:46;;;;;;;;;20.25;19.00;;;;;8.26;55.45;101403.31;2057606;28;47319;-63
2022/01/06 01:11:46;;;;;;;;;21.20;19.40;;;;;8.25;55.21;101401.53;2058392;28;47329;-62
2022/01/06 01:12:48;;;;;;;;;20.50;20.50;;;;;8.23;55.31;101404.19;2061900;28;47210;-61
2022/01/06 01:13:56;;;;;;;;;24.20;21.40;;;;;8.23;55.42;101396.25;2061921;28;47820;-62
2022/01/06 01:15:04;;;;;;;;;23.40;20.60;;;;;8.21;55.24;101392.72;2061634;28;47857;-62
2022/01/06 01:16:23;;;;;;;;;20.20;19.20;;;;;8.20;55.38;101398.91;2060864;28;45099;-64
2022/01/06 01:17:26;;;;;;;;;20.40;19.40;;;;;8.19;55.36;101397.16;2057115;28;47472;-60
2022/01/06 01:18:26;;;;;;;;;23.00;21.80;;;;;8.20;55.49;101396.25;2053429;28;47009;-61
2022/01/06 01:19:29;;;;;;;;;20.50;19.25;;;;;8.19;55.48;101396.28;2061459;28;47460;-62
2022/01/06 01:20:30;;;;;;;;;22.00;21.00;;;;;8.19;55.45;101394.50;2058295;28;47655;-62
2022/01/06 01:21:30;;;;;;;;;20.75;18.25;;;;;8.19;55.48;101391.84;2060356;28;47971;-61
2022/01/06 01:22:31;;;;;;;;;22.50;21.75;;;;;8.19;55.36;101390.97;2055430;28;47120;-62
2022/01/06 01:23:31;;;;;;;;;21.75;19.50;;;;;8.19;55.47;101394.50;2056722;28;47842;-61
2022/01/06 01:24:32;;;;;;;;;25.50;21.00;;;;;8.19;55.39;101393.63;2061751;27;47503;-61
2022/01/06 01:25:33;;;;;;;;;22.80;20.80;;;;;8.18;55.56;101391.88;2057110;28;47829;-62
2022/01/06 01:26:33;;;;;;;;;22.50;21.00;;;;;8.17;55.50;101391.00;2059084;28;47134;-62
2022/01/06 01:27:40;;;;;;;;;20.25;18.75;;;;;8.17;55.39;101393.63;2053388;28;48235;-62
2022/01/06 01:28:45;;;;;;;;;24.80;21.20;;;;;8.17;55.59;101392.75;2057008;28;47446;-62
2022/01/06 01:30:03;;;;;;;;;21.60;20.60;;;;;8.16;55.52;101397.16;2060168;28;47370;-62
2022/01/06 01:32:36;;;;;;;;;24.20;22.00;;;;;8.15;55.58;101394.53;2061306;28;47442;-60
2022/01/06 01:33:37;;;;;;;;;22.40;20.60;;;;;8.13;55.42;101389.25;2052141;28;47916;-61
2022/01/06 01:34:40;;;;;;;;;26.60;22.40;;;;;8.13;55.56;101394.53;2053689;28;47179;-63
2022/01/06 01:35:41;;;;;;;;;20.40;20.40;;;;;8.14;55.43;101395.41;2056060;28;48508;-62
2022/01/06 01:36:43;;;;;;;;;19.60;18.00;;;;;8.14;55.56;101401.56;2069458;27;48639;-63
2022/01/06 01:37:43;;;;;;;;;18.20;17.80;;;;;8.13;55.67;101397.16;2054892;28;48544;-62
2022/01/06 01:38:44;;;;;;;;;19.25;19.25;;;;;8.15;55.61;101405.09;2073614;27;47992;-62
2022/01/06 01:39:44;;;;;;;;;23.25;22.25;;;;;8.14;55.63;101405.97;2071151;27;48712;-61
2022/01/06 01:40:45;;;;;;;;;26.00;23.00;;;;;8.13;55.68;101405.09;2056678;28;47095;-62
2022/01/06 01:41:45;;;;;;;;;25.00;22.25;;;;;8.13;55.57;101409.47;2072444;28;46333;-62
2022/01/06 01:42:46;;;;;;;;;26.00;23.25;;;;;8.12;55.56;101407.72;2070383;28;47098;-61
2022/01/06 01:43:47;;;;;;;;;22.75;20.00;;;;;8.13;55.62;101399.81;2073448;27;45770;-62
2022/01/06 01:44:51;;;;;;;;;24.75;21.00;;;;;8.13;55.64;101404.19;2078006;27;47451;-61
2022/01/06 01:45:56;;;;;;;;;21.80;19.00;;;;;8.13;55.57;101401.53;2058556;28;46838;-62
2022/01/06 01:47:03;;;;;;;;;17.00;17.00;;;;;8.12;55.68;101408.59;2090776;27;48386;-62
2022/01/06 01:48:06;;;;;;;;;18.60;18.60;;;;;8.12;55.59;101405.06;2071279;28;48896;-62
2022/01/06 01:50:16;;;;;;;;;21.20;21.20;;;;;8.11;55.67;101412.13;2063233;27;47132;-62
2022/01/06 01:51:17;;;;;;;;;20.00;18.60;;;;;8.11;55.77;101412.13;2059254;28;47485;-62
2022/01/06 01:52:17;;;;;;;;;18.25;18.25;;;;;8.10;55.63;101409.47;2061169;27;47035;-62
2022/01/06 01:53:18;;;;;;;;;21.75;21.75;;;;;8.11;55.58;101408.59;2075200;27;48121;-62
2022/01/06 01:54:18;;;;;;;;;19.75;18.50;;;;;8.11;55.77;101405.97;2074716;27;47204;-62
2022/01/06 01:55:22;;;;;;;;;19.25;19.00;;;;;8.11;55.56;101408.59;2060623;27;47473;-62
2022/01/06 01:56:24;;;;;;;;;22.20;21.20;;;;;8.11;55.77;101408.59;2068303;28;46872;-62
2022/01/06 01:57:26;;;;;;;;;18.60;17.60;;;;;8.11;55.49;101416.53;2072238;28;47746;-61
2022/01/06 01:58:26;;;;;;;;;19.80;19.80;;;;;8.11;55.75;101414.78;2049181;28;48584;-63
2022/01/06 01:59:26;;;;;;;;;17.50;16.75;;;;;8.11;55.76;101416.53;2068854;28;47857;-63
2022/01/06 02:00:29;;;;;;;;;22.50;20.25;;;;;8.10;55.77;101418.28;2067439;27;47477;-62
2022/01/06 02:01:29;;;;;;;;;16.80;15.60;;;;;8.11;55.84;101420.06;2055402;27;47443;-62
2022/01/06 02:02:30;;;;;;;;;20.25;20.25;;;;;8.11;56.03;101422.69;2064850;28;48383;-62
2022/01/06 02:03:31;;;;;;;;;20.75;17.75;;;;;8.12;55.56;101426.22;2097241;27;47790;-62
2022/01/06 02:04:33;;;;;;;;;20.25;19.00;;;;;8.12;55.72;101427.09;2098152;27;47217;-62
2022/01/06 02:05:34;;;;;;;;;19.00;18.80;;;;;8.13;55.53;101425.34;2063954;27;47760;-62
2022/01/06 02:06:34;;;;;;;;;24.25;19.25;;;;;8.13;55.66;101422.69;2063966;28;46935;-63
2022/01/06 02:07:38;;;;;;;;;18.00;17.00;;;;;8.11;55.69;101425.34;2070292;28;47158;-61
2022/01/06 02:08:39;;;;;;;;;19.60;18.40;;;;;8.11;55.78;101422.69;2070041;27;48623;-62
2022/01/06 02:09:39;;;;;;;;;23.25;20.50;;;;;8.12;55.64;101420.94;2089220;28;46901;-61
2022/01/06 02:10:39;;;;;;;;;20.25;19.00;;;;;8.11;55.66;101420.06;2065454;27;48137;-60
2022/01/06 02:11:40;;;;;;;;;19.00;16.50;;;;;8.12;55.74;101421.81;2058913;27;47316;-61
2022/01/06 02:12:42;;;;;;;;;18.25;17.50;;;;;8.11;55.75;101421.81;2052264;28;48202;-61
2022/01/06 02:13:50;;;;;;;;;18.20;17.20;;;;;8.11;55.69;101425.34;2049643;28;47115;-61
2022/01/06 02:14:50;;;;;;;;;19.40;18.00;;;;;8.10;55.63;101422.69;2090537;27;48107;-62
2022/01/06 02:15:51;;;;;;;;;18.00;17.00;;;;;8.10;55.67;101428.00;2074938;28;47266;-62
2022/01/06 02:16:53;;;;;;;;;20.25;19.50;;;;;8.09;55.42;101424.47;2053738;28;46734;-62
2022/01/06 02:17:54;;;;;;;;;18.80;18.40;;;;;8.09;55.72;101427.09;2056770;28;47471;-62
2022/01/06 02:18:54;;;;;;;;;23.00;20.50;;;;;8.09;55.88;101428.88;2073926;28;46840;-61
2022/01/06 02:19:57;;;;;;;;;18.50;18.00;;;;;8.09;55.97;101434.16;2087523;27;46102;-61
2022/01/06 02:20:57;;;;;;;;;20.40;18.80;;;;;8.09;55.88;101432.41;2059394;28;47278;-62
2022/01/06 02:21:57;;;;;;;;;24.00;23.75;;;;;8.08;55.92;101424.47;2062311;28;47289;-61
2022/01/06 02:22:58;;;;;;;;;20.25;19.25;;;;;8.08;55.80;101419.19;2053180;28;47594;-61
2022/01/06 02:23:58;;;;;;;;;20.00;19.00;;;;;8.08;55.81;101425.34;2086542;28;47562;-61
2022/01/06 02:25:21;;;;;;;;;24.75;23.00;;;;;8.09;55.86;101420.94;2089899;27;47259;-61
2022/01/06 02:26:22;;;;;;;;;20.00;18.40;;;;;8.07;55.81;101420.06;2057388;28;47655;-61
2022/01/06 02:27:24;;;;;;;;;19.80;18.80;;;;;8.06;55.83;101419.19;2062128;28;47953;-62
2022/01/06 02:28:25;;;;;;;;;23.20;21.40;;;;;8.06;55.93;101424.47;2093549;27;47391;-61
2022/01/06 02:29:25;;;;;;;;;18.50;17.00;;;;;8.06;55.91;101419.19;2084018;27;47228;-61
2022/01/06 02:30:26;;;;;;;;;22.00;20.50;;;;;8.07;55.99;101425.34;2072999;27;47227;-61
2022/01/06 02:31:27;;;;;;;;;20.75;18.00;;;;;8.05;56.11;101425.34;2070765;27;46936;-61
2022/01/06 02:32:28;;;;;;;;;21.00;20.20;;;;;8.05;55.86;101428.00;2063169;28;47110;-62
2022/01/06 02:33:28;;;;;;;;;20.25;18.75;;;;;8.05;55.83;101435.06;2078080;28;46130;-62
2022/01/06 02:34:28;;;;;;;;;20.75;19.00;;;;;8.05;55.74;101435.06;2083808;28;46812;-62
2022/01/06 02:35:30;;;;;;;;;19.75;18.75;;;;;8.03;55.96;101429.78;2057347;28;47962;-62
2022/01/06 02:36:31;;;;;;;;;19.00;18.40;;;;;8.03;55.86;101432.41;2067558;27;47029;-61
2022/01/06 02:37:31;;;;;;;;;21.25;20.25;;;;;8.03;56.01;101426.25;2076552;27;46919;-61
2022/01/06 02:38:32;;;;;;;;;15.50;15.50;;;;;8.02;55.87;101433.28;2060285;27;47809;-61
2022/01/06 02:39:32;;;;;;;;;21.25;17.00;;;;;8.03;55.87;101428.88;2088636;28;48055;-61
2022/01/06 02:40:33;;;;;;;;;20.50;18.25;;;;;8.02;56.06;101430.66;2066385;28;48266;-61
2022/01/06 02:41:33;;;;;;;;;22.00;20.75;;;;;8.01;55.95;101423.59;2067117;28;46067;-61
2022/01/06 02:42:34;;;;;;;;;19.00;18.25;;;;;8.02;56.00;101419.19;2084774;28;47081;-62
2022/01/06 02:43:35;;;;;;;;;19.20;19.20;;;;;8.01;55.83;101420.09;2067506;27;47312;-62
2022/01/06 02:44:39;;;;;;;;;20.00;19.75;;;;;8.00;56.18;101429.75;2084603;27;48501;-62
2022/01/06 02:45:40;;;;;;;;;22.40;20.80;;;;;8.01;56.44;101423.59;2060334;28;47428;-62
2022/01/06 02:46:41;;;;;;;;;20.00;19.20;;;;;8.01;55.94;101418.31;2080663;28;46895;-61
2022/01/06 02:47:42;;;;;;;;;19.50;19.00;;;;;8.01;55.96;101423.59;2063502;27;48227;-62
2022/01/06 02:48:43;;;;;;;;;18.60;17.00;;;;;8.01;55.86;101423.59;2075877;28;47462;-62
2022/01/06 02:49:43;;;;;;;;;20.00;18.75;;;;;8.01;56.02;101418.31;2074148;27;47103;-62
2022/01/06 02:50:49;;;;;;;;;18.25;18.25;;;;;8.01;56.02;101428.91;2072066;28;47957;-62
2022/01/06 02:51:51;;;;;;;;;23.00;20.40;;;;;8.01;56.00;101428.91;2062337;28;47418;-62
2022/01/06 02:52:51;;;;;;;;;24.80;23.60;;;;;8.01;55.93;101430.66;2060488;28;47923;-61
2022/01/06 02:53:52;;;;;;;;;21.25;19.75;;;;;8.01;55.92;101426.25;2093102;27;47467;-62
2022/01/06 02:54:53;;;;;;;;;21.60;21.60;;;;;8.00;56.00;101434.16;2065514;27;47784;-62
2022/01/06 02:55:53;;;;;;;;;22.00;21.50;;;;;7.99;56.07;101427.97;2059457;28;47466;-61
2022/01/06 02:56:54;;;;;;;;;18.75;17.50;;;;;7.98;56.05;101432.38;2076439;28;47282;-62
2022/01/06 02:57:55;;;;;;;;;25.60;20.00;;;;;7.98;55.97;101432.38;2061099;27;47482;-61
2022/01/06 02:58:55;;;;;;;;;19.00;17.75;;;;;7.98;55.80;101437.69;2088249;28;47215;-61
2022/01/06 02:59:56;;;;;;;;;21.75;21.75;;;;;7.98;56.19;101428.88;2066137;27;47041;-62
2022/01/06 03:00:56;;;;;;;;;18.00;17.75;;;;;7.98;55.92;101428.88;2063681;27;47498;-61
2022/01/06 03:01:56;;;;;;;;;20.00;18.25;;;;;7.98;55.92;101429.75;2081452;28;47184;-60
2022/01/06 03:02:57;;;;;;;;;18.50;18.00;;;;;7.98;56.08;101442.09;2065445;27;47505;-62
2022/01/06 03:03:57;;;;;;;;;22.25;21.50;;;;;7.97;56.12;101441.19;2083410;27;48584;-61
2022/01/06 03:04:58;;;;;;;;;25.00;19.00;;;;;7.98;56.07;101442.97;2068012;27;48238;-61
2022/01/06 03:05:58;;;;;;;;;17.25;17.25;;;;;7.98;56.13;101447.38;2054583;28;48254;-61
2022/01/06 03:07:00;;;;;;;;;19.75;18.50;;;;;7.98;56.09;101450.88;2083397;28;47309;-61
2022/01/06 03:08:01;;;;;;;;;21.60;19.80;;;;;7.99;56.00;101451.78;2067132;28;47786;-62
2022/01/06 03:09:03;;;;;;;;;16.25;16.25;;;;;7.99;56.08;101451.78;2056027;28;46895;-62
2022/01/06 03:10:08;;;;;;;;;20.40;18.40;;;;;7.99;55.96;101451.78;2050893;28;48134;-62
2022/01/06 03:11:08;;;;;;;;;19.00;17.40;;;;;8.00;56.03;101452.66;2053330;28;48040;-61
2022/01/06 03:12:46;;;;;;;;;17.00;17.00;;;;;8.00;56.02;101450.88;2071127;28;47540;-62
2022/01/06 03:13:40;;;;;;;;;20.40;19.00;;;;;7.98;56.08;101450.88;2081145;28;46236;-61
2022/01/06 03:14:40;;;;;;;;;18.00;17.00;;;;;7.98;56.05;101445.59;2091791;27;47876;-61
2022/01/06 03:15:41;;;;;;;;;21.50;18.50;;;;;7.98;56.14;101453.53;2056273;27;47774;-61
2022/01/06 03:16:41;;;;;;;;;19.25;19.25;;;;;7.98;55.89;101456.19;2067807;27;46271;-61
2022/01/06 03:17:43;;;;;;;;;23.00;20.75;;;;;7.99;55.90;101454.41;2060707;27;45446;-60
2022/01/06 03:18:44;;;;;;;;;17.60;15.60;;;;;7.99;56.02;101454.41;2085552;28;48236;-61
2022/01/06 03:19:44;;;;;;;;;23.25;23.25;;;;;8.00;56.17;101450.88;2060177;27;46908;-62
2022/01/06 03:20:45;;;;;;;;;14.50;14.50;;;;;8.01;55.94;101454.44;2055434;28;48384;-61
2022/01/06 03:21:45;;;;;;;;;18.75;17.50;;;;;8.01;56.16;101467.66;2078189;28;47217;-61
2022/01/06 03:22:46;;;;;;;;;18.50;18.25;;;;;8.00;56.07;101466.75;2060425;27;47088;-61
2022/01/06 03:23:46;;;;;;;;;18.25;17.75;;;;;8.01;56.06;101473.81;2074550;28;47377;-61
2022/01/06 03:24:46;;;;;;;;;19.00;18.00;;;;;8.02;55.83;101470.31;2066426;27;47481;-62
2022/01/06 03:25:47;;;;;;;;;18.25;17.25;;;;;8.01;56.49;101463.25;2053467;28;47787;-62
2022/01/06 03:26:48;;;;;;;;;22.25;21.00;;;;;8.02;55.98;101465.00;2087276;28;46026;-61
2022/01/06 03:27:49;;;;;;;;;18.00;17.50;;;;;8.03;56.17;101457.97;2061804;28;47328;-61
2022/01/06 03:28:49;;;;;;;;;23.00;21.00;;;;;8.03;56.21;101460.59;2096315;27;48100;-61
2022/01/06 03:29:50;;;;;;;;;24.50;20.75;;;;;8.04;55.86;101463.25;2082996;27;47446;-61
2022/01/06 03:30:50;;;;;;;;;20.00;19.25;;;;;8.04;55.93;101465.88;2055092;28;48218;-61
2022/01/06 03:31:51;;;;;;;;;20.25;18.75;;;;;8.05;55.94;101464.13;2095646;28;47748;-60
2022/01/06 03:32:52;;;;;;;;;16.25;16.25;;;;;8.04;56.00;101470.28;2066522;28;48135;-61
2022/01/06 03:33:52;;;;;;;;;21.00;21.00;;;;;8.04;56.05;101467.66;2096267;27;47454;-61
2022/01/06 03:34:53;;;;;;;;;22.25;20.50;;;;;8.03;55.94;101466.78;2070317;27;48046;-60
2022/01/06 03:35:53;;;;;;;;;19.00;17.25;;;;;8.03;55.87;101469.41;2057950;28;47813;-62
2022/01/06 03:36:54;;;;;;;;;18.75;18.75;;;;;8.03;55.87;101463.25;2053779;27;48351;-62
2022/01/06 03:37:55;;;;;;;;;21.25;20.25;;;;;8.04;56.03;101470.28;2064059;28;46189;-61
2022/01/06 03:38:55;;;;;;;;;15.40;15.40;;;;;8.02;56.00;101469.41;2055453;27;47184;-62
2022/01/06 03:39:56;;;;;;;;;19.00;15.25;;;;;8.02;56.16;101472.94;2085819;28;46061;-61
2022/01/06 03:40:56;;;;;;;;;19.00;18.50;;;;;8.02;56.04;101467.66;2065098;28;47086;-61
2022/01/06 03:41:57;;;;;;;;;17.50;16.75;;;;;8.02;56.02;101466.78;2054043;28;48749;-61
2022/01/06 03:42:57;;;;;;;;;17.75;17.50;;;;;8.02;56.04;101474.72;2088323;27;48175;-62
2022/01/06 03:43:57;;;;;;;;;19.50;17.75;;;;;8.01;55.95;101465.00;2087420;27;46437;-61
2022/01/06 03:44:58;;;;;;;;;17.75;16.25;;;;;8.00;56.03;101466.75;2085684;27;47096;-61
2022/01/06 03:45:59;;;;;;;;;16.50;12.25;;;;;8.00;55.94;101466.75;2073100;28;46322;-61
2022/01/06 03:46:59;;;;;;;;;19.50;19.50;;;;;8.01;55.97;101465.00;2080711;28;47136;-61
2022/01/06 03:48:01;;;;;;;;;16.25;16.00;;;;;8.01;55.88;101471.19;2095878;28;47729;-62
2022/01/06 03:49:01;;;;;;;;;21.40;21.40;;;;;8.02;55.84;101466.78;2083807;28;48175;-61
2022/01/06 03:50:03;;;;;;;;;18.25;18.00;;;;;8.02;56.26;101465.00;2046803;28;47631;-62
2022/01/06 03:51:03;;;;;;;;;20.00;19.20;;;;;8.02;55.90;101466.78;2060158;28;48197;-62
2022/01/06 03:52:04;;;;;;;;;22.00;17.75;;;;;8.01;56.09;101463.25;2061440;28;47530;-62
2022/01/06 03:53:04;;;;;;;;;19.00;17.25;;;;;8.03;55.89;101468.53;2057342;28;48071;-61
2022/01/06 03:54:05;;;;;;;;;15.00;13.00;;;;;8.02;55.97;101462.38;2086687;28;47461;-61
2022/01/06 03:55:08;;;;;;;;;16.25;16.00;;;;;8.03;56.02;101465.91;2085643;27;47502;-62
2022/01/06 03:56:09;;;;;;;;;15.80;14.40;;;;;8.03;55.90;101469.41;2060084;27;47581;-61
2022/01/06 03:57:09;;;;;;;;;19.25;17.25;;;;;8.02;56.11;101469.41;2065954;28;47362;-61
2022/01/06 03:58:11;;;;;;;;;19.00;17.00;;;;;8.03;55.88;101468.53;2054005;28;48291;-61
2022/01/06 03:59:11;;;;;;;;;17.60;15.60;;;;;8.02;55.98;101469.41;2061579;28;48182;-62
2022/01/06 04:00:15;;;;;;;;;22.00;15.75;;;;;8.02;55.93;101469.41;2057689;28;47327;-62
2022/01/06 04:01:16;;;;;;;;;17.00;17.00;;;;;8.01;56.02;101470.31;2061114;28;45948;-62
2022/01/06 04:02:17;;;;;;;;;12.80;12.80;;;;;8.01;56.02;101468.53;2059809;27;47381;-61
2022/01/06 04:03:17;;;;;;;;;18.50;18.50;;;;;8.01;56.16;101472.94;2082923;27;47125;-63
2022/01/06 04:04:18;;;;;;;;;21.00;20.00;;;;;8.01;56.15;101475.59;2079022;27;46908;-61
2022/01/06 04:05:18;;;;;;;;;16.75;16.25;;;;;8.00;55.92;101465.88;2063764;27;47096;-63
2022/01/06 04:06:19;;;;;;;;;19.00;17.50;;;;;8.01;56.23;101470.31;2070389;28;48074;-63
2022/01/06 04:07:19;;;;;;;;;14.25;14.25;;;;;8.01;56.04;101471.19;2068378;28;47187;-62
2022/01/06 04:08:20;;;;;;;;;15.25;14.50;;;;;8.01;56.14;101471.19;2072831;27;48364;-62
2022/01/06 04:09:20;;;;;;;;;13.25;12.25;;;;;8.00;56.08;101466.75;2077056;28;45924;-62
2022/01/06 04:10:20;;;;;;;;;14.00;13.00;;;;;8.00;55.88;101466.75;2069515;28;47240;-62
2022/01/06 04:11:21;;;;;;;;;18.50;16.00;;;;;7.99;56.01;101467.63;2074023;28;47178;-61
2022/01/06 04:12:21;;;;;;;;;19.00;17.50;;;;;7.98;56.05;101469.41;2078481;28;47424;-63
2022/01/06 04:13:23;;;;;;;;;17.00;16.75;;;;;7.96;55.93;101465.88;2082475;27;46497;-61
2022/01/06 04:14:24;;;;;;;;;13.60;13.60;;;;;7.95;56.13;101466.75;2061608;28;47195;-61
2022/01/06 04:15:26;;;;;;;;;15.75;15.75;;;;;7.94;56.00;101474.69;2058210;28;47254;-61
2022/01/06 04:16:28;;;;;;;;;10.00;5.40;;;;;7.94;56.17;101469.41;2058266;28;47026;-62
2022/01/06 04:17:28;;;;;;;;;16.00;14.60;;;;;7.94;56.11;101469.41;2068231;28;47509;-63
2022/01/06 04:18:29;;;;;;;;;16.50;15.00;;;;;7.94;55.95;101477.31;2070093;28;47679;-61
2022/01/06 04:19:30;;;;;;;;;12.80;12.20;;;;;7.93;55.92;101476.44;2096273;28;48972;-63
2022/01/06 04:20:30;;;;;;;;;15.50;14.75;;;;;7.93;56.04;101468.53;2058544;28;46041;-61
2022/01/06 04:21:30;;;;;;;;;17.25;13.25;;;;;7.94;56.07;101466.75;2063431;28;48353;-62
2022/01/06 04:22:31;;;;;;;;;19.50;15.75;;;;;7.94;56.06;101467.63;2073405;28;47395;-62
2022/01/06 04:23:31;;;;;;;;;10.00;10.00;;;;;7.96;56.11;101472.91;2066200;28;47501;-61
2022/01/06 04:24:32;;;;;;;;;16.25;15.00;;;;;7.96;55.98;101470.28;2068582;28;47456;-61
2022/01/06 04:25:33;;;;;;;;;16.60;15.60;;;;;7.96;56.19;101468.50;2063609;28;47717;-61
2022/01/06 04:26:33;;;;;;;;;13.50;13.50;;;;;7.97;56.03;101469.41;2059760;28;47137;-62
2022/01/06 04:27:34;;;;;;;;;17.50;17.50;;;;;7.97;56.18;101467.63;2061972;28;46678;-62
2022/01/06 04:28:36;;;;;;;;;16.20;14.00;;;;;7.98;55.91;101472.03;2103639;27;47499;-62
2022/01/06 04:29:36;;;;;;;;;14.00;14.00;;;;;7.98;56.02;101473.81;2098900;27;47155;-62
2022/01/06 04:30:37;;;;;;;;;13.00;13.00;;;;;7.98;56.15;101487.91;2065638;27;46032;-61
2022/01/06 04:31:38;;;;;;;;;17.25;14.00;;;;;7.98;56.31;101484.38;2063425;28;47131;-61
2022/01/06 04:32:38;;;;;;;;;14.20;14.20;;;;;7.98;56.20;101485.25;2064293;28;47834;-61
2022/01/06 04:33:39;;;;;;;;;14.00;13.25;;;;;7.99;56.23;101478.19;2095807;27;48546;-62
2022/01/06 04:34:39;;;;;;;;;14.25;13.00;;;;;8.00;56.22;101481.72;2085301;27;48271;-61
2022/01/06 04:35:40;;;;;;;;;12.00;12.00;;;;;7.99;56.28;101478.19;2056108;28;48143;-62
2022/01/06 04:36:47;;;;;;;;;11.50;10.50;;;;;8.00;56.17;101479.09;2066826;27;47472;-61
2022/01/06 04:37:49;;;;;;;;;13.20;11.20;;;;;8.00;56.23;101487.00;2072212;28;46666;-62
2022/01/06 04:38:49;;;;;;;;;13.80;10.60;;;;;8.00;55.89;101487.00;2061256;28;46022;-60
2022/01/06 04:39:50;;;;;;;;;12.75;12.50;;;;;8.00;55.97;101479.09;2097321;27;47517;-62
2022/01/06 04:40:50;;;;;;;;;11.25;10.00;;;;;7.99;56.05;101472.91;2075970;28;47124;-61
2022/01/06 04:41:51;;;;;;;;;9.75;9.00;;;;;7.98;56.02;101485.25;2063666;28;47266;-62
2022/01/06 04:42:51;;;;;;;;;13.00;10.50;;;;;7.98;55.86;101479.09;2094374;28;47425;-60
2022/01/06 04:43:52;;;;;;;;;14.00;14.00;;;;;7.97;56.12;101486.13;2092426;28;47767;-61
2022/01/06 04:44:52;;;;;;;;;11.50;10.50;;;;;7.97;56.22;101488.78;2092030;28;47317;-61
2022/01/06 04:45:53;;;;;;;;;14.50;10.75;;;;;7.97;56.10;101490.53;2081544;28;47167;-61
2022/01/06 04:46:53;;;;;;;;;14.00;14.00;;;;;7.98;55.91;101487.00;2094437;28;45584;-62
2022/01/06 04:47:54;;;;;;;;;17.75;14.00;;;;;7.97;56.15;101485.25;2100871;28;48018;-61
2022/01/06 04:48:54;;;;;;;;;9.25;9.25;;;;;7.97;56.06;101487.91;2100901;27;47282;-62
2022/01/06 04:49:54;;;;;;;;;10.50;10.50;;;;;7.96;56.07;101484.38;2098414;27;48249;-61
2022/01/06 04:50:55;;;;;;;;;13.00;11.00;;;;;7.96;56.07;101489.66;2061837;27;46376;-61
2022/01/06 04:51:55;;;;;;;;;11.25;10.50;;;;;7.98;56.19;101484.38;2067042;27;47495;-61